sensor_id;sensor_type;location;lat;lon;timestamp;P1;durP1;ratioP1;P2;durP2;ratioP2
12222;SDS011;6174;49.058;8.524;2023-02-28T05:01:52;4.10;;;3.70;;
12222;SDS011;6174;49.058;8.524;2023-02-28T05:04:18;3.80;;;3.50;;
12222;SDS011;6174;49.058;8.524;2023-02-28T05:06:45;3.73;;;3.43;;
12222;SDS011;6174;49.058;8.524;2023-02-28T05:09:12;4.17;;;3.77;;
12222;SDS011;6174;49.058;8.524;2023-02-28T05:11:39;3.80;;;3.50;;
12222;SDS011;6174;49.058;8.524;2023-02-28T05:14:06;3.83;;;3.53;;
12222;SDS011;6174;49.058;8.524;2023-02-28T05:16:36;4.33;;;3.93;;
12222;SDS011;6174;49.058;8.524;2023-02-28T05:19:04;4.30;;;3.80;;
12222;SDS011;6174;49.058;8.524;2023-02-28T05:21:31;4.60;;;3.47;;
12222;SDS011;6174;49.058;8.524;2023-02-28T05:24:00;4.13;;;3.83;;
12222;SDS011;6174;49.058;8.524;2023-02-28T05:26:28;4.07;;;3.77;;
12222;SDS011;6174;49.058;8.524;2023-02-28T05:28:56;3.93;;;3.53;;
12222;SDS011;6174;49.058;8.524;2023-02-28T05:31:23;4.30;;;4.00;;
12222;SDS011;6174;49.058;8.524;2023-02-28T05:33:50;4.20;;;3.80;;
12222;SDS011;6174;49.058;8.524;2023-02-28T05:36:18;5.83;;;4.03;;
12222;SDS011;6174;49.058;8.524;2023-02-28T05:38:45;4.87;;;3.83;;
12222;SDS011;6174;49.058;8.524;2023-02-28T05:41:14;4.27;;;3.90;;
12222;SDS011;6174;49.058;8.524;2023-02-28T05:43:41;4.17;;;3.80;;
12222;SDS011;6174;49.058;8.524;2023-02-28T05:46:08;4.10;;;3.70;;
12222;SDS011;6174;49.058;8.524;2023-02-28T05:48:37;4.07;;;3.77;;
12222;SDS011;6174;49.058;8.524;2023-02-28T05:51:05;4.33;;;3.97;;
12222;SDS011;6174;49.058;8.524;2023-02-28T05:53:34;4.50;;;4.10;;
12222;SDS011;6174;49.058;8.524;2023-02-28T05:56:01;3.90;;;3.37;;
12222;SDS011;6174;49.058;8.524;2023-02-28T05:58:28;4.60;;;4.20;;
12222;SDS011;6174;49.058;8.524;2023-02-28T06:00:55;4.00;;;3.70;;
12222;SDS011;6174;49.058;8.524;2023-02-28T06:03:22;4.17;;;3.77;;
12222;SDS011;6174;49.058;8.524;2023-02-28T06:05:49;4.30;;;3.90;;
12222;SDS011;6174;49.058;8.524;2023-02-28T06:08:16;4.03;;;3.63;;
12222;SDS011;6174;49.058;8.524;2023-02-28T06:10:44;4.20;;;3.80;;
12222;SDS011;6174;49.058;8.524;2023-02-28T06:13:11;4.20;;;3.77;;
12222;SDS011;6174;49.058;8.524;2023-02-28T06:15:38;4.40;;;4.00;;
12222;SDS011;6174;49.058;8.524;2023-02-28T06:18:05;4.30;;;3.97;;
12222;SDS011;6174;49.058;8.524;2023-02-28T06:20:33;4.87;;;4.47;;
12222;SDS011;6174;49.058;8.524;2023-02-28T06:23:01;4.77;;;3.90;;
12222;SDS011;6174;49.058;8.524;2023-02-28T06:25:29;4.40;;;4.00;;
12222;SDS011;6174;49.058;8.524;2023-02-28T06:27:57;4.40;;;4.00;;
12222;SDS011;6174;49.058;8.524;2023-02-28T06:30:24;4.50;;;4.10;;
12222;SDS011;6174;49.058;8.524;2023-02-28T06:32:52;4.87;;;4.37;;
12222;SDS011;6174;49.058;8.524;2023-02-28T06:35:19;4.20;;;3.80;;
12222;SDS011;6174;49.058;8.524;2023-02-28T06:37:46;4.60;;;4.20;;
12222;SDS011;6174;49.058;8.524;2023-02-28T06:40:13;4.20;;;3.80;;
12222;SDS011;6174;49.058;8.524;2023-02-28T06:42:40;4.00;;;3.70;;
12222;SDS011;6174;49.058;8.524;2023-02-28T06:45:09;4.30;;;3.90;;
12222;SDS011;6174;49.058;8.524;2023-02-28T06:47:36;4.43;;;4.00;;
12222;SDS011;6174;49.058;8.524;2023-02-28T06:50:05;4.77;;;4.27;;
12222;SDS011;6174;49.058;8.524;2023-02-28T06:52:32;4.50;;;4.10;;
12222;SDS011;6174;49.058;8.524;2023-02-28T06:55:02;4.23;;;3.83;;
12222;SDS011;6174;49.058;8.524;2023-02-28T06:57:30;5.00;;;4.07;;
12222;SDS011;6174;49.058;8.524;2023-02-28T06:59:58;4.67;;;4.27;;
12222;SDS011;6174;49.058;8.524;2023-02-28T07:02:26;4.40;;;4.00;;
12222;SDS011;6174;49.058;8.524;2023-02-28T07:04:56;4.67;;;4.27;;
12222;SDS011;6174;49.058;8.524;2023-02-28T07:07:23;4.53;;;4.10;;
12222;SDS011;6174;49.058;8.524;2023-02-28T07:09:50;4.83;;;4.33;;
12222;SDS011;6174;49.058;8.524;2023-02-28T07:12:17;4.40;;;4.10;;
12222;SDS011;6174;49.058;8.524;2023-02-28T07:14:43;4.90;;;4.43;;
12222;SDS011;6174;49.058;8.524;2023-02-28T07:17:10;4.10;;;3.70;;
12222;SDS011;6174;49.058;8.524;2023-02-28T07:19:39;5.50;;;4.00;;
12222;SDS011;6174;49.058;8.524;2023-02-28T07:22:06;4.73;;;4.33;;
12222;SDS011;6174;49.058;8.524;2023-02-28T07:24:33;4.30;;;3.90;;
12222;SDS011;6174;49.058;8.524;2023-02-28T07:27:00;4.60;;;4.20;;
12222;SDS011;6174;49.058;8.524;2023-02-28T07:29:27;4.70;;;4.30;;
12222;SDS011;6174;49.058;8.524;2023-02-28T07:31:54;4.57;;;4.17;;
12222;SDS011;6174;49.058;8.524;2023-02-28T07:34:21;4.73;;;4.23;;
12222;SDS011;6174;49.058;8.524;2023-02-28T07:36:51;5.20;;;4.47;;
12222;SDS011;6174;49.058;8.524;2023-02-28T07:39:19;4.63;;;4.23;;
12222;SDS011;6174;49.058;8.524;2023-02-28T07:41:46;4.80;;;4.33;;
12222;SDS011;6174;49.058;8.524;2023-02-28T07:44:13;5.13;;;4.40;;
12222;SDS011;6174;49.058;8.524;2023-02-28T07:46:40;4.60;;;4.20;;
12222;SDS011;6174;49.058;8.524;2023-02-28T07:49:07;4.57;;;4.17;;
12222;SDS011;6174;49.058;8.524;2023-02-28T07:51:33;6.43;;;5.40;;
12222;SDS011;6174;49.058;8.524;2023-02-28T07:54:02;5.10;;;4.60;;
12222;SDS011;6174;49.058;8.524;2023-02-28T07:56:29;5.37;;;4.97;;
12222;SDS011;6174;49.058;8.524;2023-02-28T07:58:56;7.33;;;6.63;;
12222;SDS011;6174;49.058;8.524;2023-02-28T08:01:23;6.23;;;5.63;;
12222;SDS011;6174;49.058;8.524;2023-02-28T08:03:50;5.93;;;5.33;;
12222;SDS011;6174;49.058;8.524;2023-02-28T08:06:17;6.40;;;5.80;;
12222;SDS011;6174;49.058;8.524;2023-02-28T08:08:45;6.10;;;5.53;;
12222;SDS011;6174;49.058;8.524;2023-02-28T08:11:13;5.20;;;4.70;;
12222;SDS011;6174;49.058;8.524;2023-02-28T08:13:41;5.40;;;4.90;;
12222;SDS011;6174;49.058;8.524;2023-02-28T08:16:08;5.10;;;4.60;;
12222;SDS011;6174;49.058;8.524;2023-02-28T08:18:36;5.13;;;4.60;;
12222;SDS011;6174;49.058;8.524;2023-02-28T08:21:05;5.20;;;4.70;;
12222;SDS011;6174;49.058;8.524;2023-02-28T08:23:32;6.23;;;5.70;;
12222;SDS011;6174;49.058;8.524;2023-02-28T08:26:00;5.20;;;4.70;;
12222;SDS011;6174;49.058;8.524;2023-02-28T08:28:28;5.87;;;5.23;;
12222;SDS011;6174;49.058;8.524;2023-02-28T08:30:55;4.43;;;4.03;;
12222;SDS011;6174;49.058;8.524;2023-02-28T08:33:22;5.40;;;5.00;;
12222;SDS011;6174;49.058;8.524;2023-02-28T08:35:51;6.43;;;4.63;;
12222;SDS011;6174;49.058;8.524;2023-02-28T08:38:19;5.40;;;4.90;;
12222;SDS011;6174;49.058;8.524;2023-02-28T08:40:45;6.20;;;5.13;;
12222;SDS011;6174;49.058;8.524;2023-02-28T08:43:12;6.00;;;5.13;;
12222;SDS011;6174;49.058;8.524;2023-02-28T08:45:40;4.80;;;4.40;;
12222;SDS011;6174;49.058;8.524;2023-02-28T08:48:07;5.23;;;4.83;;
12222;SDS011;6174;49.058;8.524;2023-02-28T08:50:34;5.10;;;4.70;;
12222;SDS011;6174;49.058;8.524;2023-02-28T08:53:01;5.77;;;5.17;;
12222;SDS011;6174;49.058;8.524;2023-02-28T08:55:28;6.77;;;5.53;;
12222;SDS011;6174;49.058;8.524;2023-02-28T08:57:55;5.20;;;4.70;;
12222;SDS011;6174;49.058;8.524;2023-02-28T09:00:22;5.50;;;5.00;;
12222;SDS011;6174;49.058;8.524;2023-02-28T09:02:50;6.37;;;5.53;;
12222;SDS011;6174;49.058;8.524;2023-02-28T09:05:17;5.50;;;5.00;;
12222;SDS011;6174;49.058;8.524;2023-02-28T09:07:44;6.47;;;5.70;;
12222;SDS011;6174;49.058;8.524;2023-02-28T09:10:10;5.40;;;4.90;;
12222;SDS011;6174;49.058;8.524;2023-02-28T09:12:37;5.83;;;5.20;;
12222;SDS011;6174;49.058;8.524;2023-02-28T09:15:05;6.37;;;5.40;;
12222;SDS011;6174;49.058;8.524;2023-02-28T09:17:32;6.20;;;5.53;;
12222;SDS011;6174;49.058;8.524;2023-02-28T09:20:00;5.13;;;4.73;;
12222;SDS011;6174;49.058;8.524;2023-02-28T09:22:27;5.50;;;5.00;;
12222;SDS011;6174;49.058;8.524;2023-02-28T09:24:54;5.17;;;4.70;;
12222;SDS011;6174;49.058;8.524;2023-02-28T09:27:21;5.97;;;5.37;;
12222;SDS011;6174;49.058;8.524;2023-02-28T09:29:48;5.97;;;5.30;;
12222;SDS011;6174;49.058;8.524;2023-02-28T09:32:14;5.97;;;5.37;;
12222;SDS011;6174;49.058;8.524;2023-02-28T09:34:43;5.57;;;5.07;;
12222;SDS011;6174;49.058;8.524;2023-02-28T09:37:11;5.67;;;5.13;;
12222;SDS011;6174;49.058;8.524;2023-02-28T09:39:38;5.70;;;5.20;;
12222;SDS011;6174;49.058;8.524;2023-02-28T09:42:04;5.83;;;5.33;;
12222;SDS011;6174;49.058;8.524;2023-02-28T09:44:38;5.97;;;5.37;;
12222;SDS011;6174;49.058;8.524;2023-02-28T09:47:10;5.63;;;5.13;;
12222;SDS011;6174;49.058;8.524;2023-02-28T09:49:41;6.20;;;5.60;;
12222;SDS011;6174;49.058;8.524;2023-02-28T09:52:14;5.80;;;5.20;;
12222;SDS011;6174;49.058;8.524;2023-02-28T09:54:44;5.57;;;5.07;;
12222;SDS011;6174;49.058;8.524;2023-02-28T09:57:14;5.80;;;5.30;;
12222;SDS011;6174;49.058;8.524;2023-02-28T09:59:49;6.23;;;5.67;;
12222;SDS011;6174;49.058;8.524;2023-02-28T10:02:38;6.30;;;5.70;;
12222;SDS011;6174;49.058;8.524;2023-02-28T10:05:26;6.97;;;6.33;;
12222;SDS011;6174;49.058;8.524;2023-02-28T10:08:00;6.30;;;5.70;;
12222;SDS011;6174;49.058;8.524;2023-02-28T10:10:32;6.30;;;5.70;;
12222;SDS011;6174;49.058;8.524;2023-02-28T10:13:04;5.93;;;5.33;;
12222;SDS011;6174;49.058;8.524;2023-02-28T10:15:37;6.23;;;5.63;;
12222;SDS011;6174;49.058;8.524;2023-02-28T10:18:06;6.70;;;6.00;;
12222;SDS011;6174;49.058;8.524;2023-02-28T10:20:39;6.77;;;5.93;;
12222;SDS011;6174;49.058;8.524;2023-02-28T10:23:11;7.60;;;5.80;;
12222;SDS011;6174;49.058;8.524;2023-02-28T10:25:42;5.87;;;5.27;;
12222;SDS011;6174;49.058;8.524;2023-02-28T10:28:14;6.50;;;5.90;;
12222;SDS011;6174;49.058;8.524;2023-02-28T10:30:43;6.40;;;5.43;;
12222;SDS011;6174;49.058;8.524;2023-02-28T10:33:16;5.47;;;4.97;;
12222;SDS011;6174;49.058;8.524;2023-02-28T10:35:47;6.17;;;5.53;;
12222;SDS011;6174;49.058;8.524;2023-02-28T10:38:17;6.17;;;5.60;;
12222;SDS011;6174;49.058;8.524;2023-02-28T10:40:45;6.37;;;5.77;;
12222;SDS011;6174;49.058;8.524;2023-02-28T10:43:18;6.20;;;5.60;;
12222;SDS011;6174;49.058;8.524;2023-02-28T10:45:53;6.40;;;5.77;;
12222;SDS011;6174;49.058;8.524;2023-02-28T10:48:33;6.10;;;5.60;;
12222;SDS011;6174;49.058;8.524;2023-02-28T10:51:02;5.77;;;5.27;;
12222;SDS011;6174;49.058;8.524;2023-02-28T10:53:33;6.57;;;5.83;;
12222;SDS011;6174;49.058;8.524;2023-02-28T10:56:04;6.40;;;5.80;;
12222;SDS011;6174;49.058;8.524;2023-02-28T10:58:42;6.80;;;6.20;;
12222;SDS011;6174;49.058;8.524;2023-02-28T11:01:14;7.40;;;6.20;;
12222;SDS011;6174;49.058;8.524;2023-02-28T11:03:43;7.03;;;6.43;;
12222;SDS011;6174;49.058;8.524;2023-02-28T11:06:13;7.00;;;6.23;;
12222;SDS011;6174;49.058;8.524;2023-02-28T11:08:45;6.87;;;6.17;;
12222;SDS011;6174;49.058;8.524;2023-02-28T11:11:15;7.00;;;5.87;;
12222;SDS011;6174;49.058;8.524;2023-02-28T11:13:43;6.70;;;6.10;;
12222;SDS011;6174;49.058;8.524;2023-02-28T11:16:12;6.80;;;6.20;;
12222;SDS011;6174;49.058;8.524;2023-02-28T11:18:41;6.73;;;6.13;;
12222;SDS011;6174;49.058;8.524;2023-02-28T11:21:14;7.90;;;6.27;;
12222;SDS011;6174;49.058;8.524;2023-02-28T11:23:45;6.60;;;6.00;;
12222;SDS011;6174;49.058;8.524;2023-02-28T11:26:14;6.90;;;6.30;;
12222;SDS011;6174;49.058;8.524;2023-02-28T11:28:42;6.97;;;6.27;;
12222;SDS011;6174;49.058;8.524;2023-02-28T11:31:16;7.20;;;6.50;;
12222;SDS011;6174;49.058;8.524;2023-02-28T11:33:47;7.43;;;6.47;;
12222;SDS011;6174;49.058;8.524;2023-02-28T11:36:17;6.50;;;5.90;;
12222;SDS011;6174;49.058;8.524;2023-02-28T11:38:47;7.07;;;6.37;;
12222;SDS011;6174;49.058;8.524;2023-02-28T11:41:19;6.90;;;6.30;;
12222;SDS011;6174;49.058;8.524;2023-02-28T11:44:00;7.17;;;6.47;;
12222;SDS011;6174;49.058;8.524;2023-02-28T11:46:38;7.23;;;6.50;;
12222;SDS011;6174;49.058;8.524;2023-02-28T11:49:13;6.27;;;5.67;;
12222;SDS011;6174;49.058;8.524;2023-02-28T11:51:52;7.50;;;6.40;;
12222;SDS011;6174;49.058;8.524;2023-02-28T11:54:30;6.47;;;5.97;;
12222;SDS011;6174;49.058;8.524;2023-02-28T11:57:29;6.50;;;5.90;;
12222;SDS011;6174;49.058;8.524;2023-02-28T12:00:07;6.27;;;5.67;;
12222;SDS011;6174;49.058;8.524;2023-02-28T12:02:49;7.23;;;6.33;;
12222;SDS011;6174;49.058;8.524;2023-02-28T12:05:30;6.40;;;5.80;;
12222;SDS011;6174;49.058;8.524;2023-02-28T12:08:07;6.50;;;5.90;;
12222;SDS011;6174;49.058;8.524;2023-02-28T12:10:52;6.47;;;5.87;;
12222;SDS011;6174;49.058;8.524;2023-02-28T12:13:28;6.67;;;6.07;;
12222;SDS011;6174;49.058;8.524;2023-02-28T12:16:10;6.83;;;6.20;;
12222;SDS011;6174;49.058;8.524;2023-02-28T12:18:53;6.90;;;6.30;;
12222;SDS011;6174;49.058;8.524;2023-02-28T12:21:35;7.33;;;6.70;;
12222;SDS011;6174;49.058;8.524;2023-02-28T12:24:14;7.23;;;6.53;;
12222;SDS011;6174;49.058;8.524;2023-02-28T12:26:51;6.67;;;6.03;;
12222;SDS011;6174;49.058;8.524;2023-02-28T12:29:19;7.00;;;6.30;;
12222;SDS011;6174;49.058;8.524;2023-02-28T12:31:52;7.23;;;6.63;;
12222;SDS011;6174;49.058;8.524;2023-02-28T12:34:22;7.10;;;6.40;;
12222;SDS011;6174;49.058;8.524;2023-02-28T12:36:53;6.20;;;5.70;;
12222;SDS011;6174;49.058;8.524;2023-02-28T12:39:25;7.30;;;6.60;;
12222;SDS011;6174;49.058;8.524;2023-02-28T12:41:58;6.23;;;5.67;;
12222;SDS011;6174;49.058;8.524;2023-02-28T12:44:30;6.87;;;6.27;;
12222;SDS011;6174;49.058;8.524;2023-02-28T12:47:01;6.57;;;6.03;;
12222;SDS011;6174;49.058;8.524;2023-02-28T12:49:31;6.63;;;6.13;;
12222;SDS011;6174;49.058;8.524;2023-02-28T12:52:00;6.47;;;5.97;;
12222;SDS011;6174;49.058;8.524;2023-02-28T12:54:29;7.50;;;6.70;;
12222;SDS011;6174;49.058;8.524;2023-02-28T12:57:05;7.50;;;6.80;;
12222;SDS011;6174;49.058;8.524;2023-02-28T12:59:38;7.00;;;6.30;;
12222;SDS011;6174;49.058;8.524;2023-02-28T13:02:28;6.43;;;5.83;;
12222;SDS011;6174;49.058;8.524;2023-02-28T13:05:14;6.83;;;6.13;;
12222;SDS011;6174;49.058;8.524;2023-02-28T13:10:53;7.27;;;6.57;;
12222;SDS011;6174;49.058;8.524;2023-02-28T13:13:22;7.97;;;7.17;;
12222;SDS011;6174;49.058;8.524;2023-02-28T13:15:59;6.80;;;6.13;;
12222;SDS011;6174;49.058;8.524;2023-02-28T13:18:32;7.30;;;6.60;;
12222;SDS011;6174;49.058;8.524;2023-02-28T13:21:02;7.83;;;6.53;;
12222;SDS011;6174;49.058;8.524;2023-02-28T13:23:56;7.60;;;6.93;;
12222;SDS011;6174;49.058;8.524;2023-02-28T13:29:38;7.97;;;6.53;;
12222;SDS011;6174;49.058;8.524;2023-02-28T13:43:59;7.83;;;7.03;;
12222;SDS011;6174;49.058;8.524;2023-02-28T13:46:28;7.07;;;6.47;;
12222;SDS011;6174;49.058;8.524;2023-02-28T13:48:55;7.27;;;6.57;;
12222;SDS011;6174;49.058;8.524;2023-02-28T13:51:38;7.40;;;6.80;;
12222;SDS011;6174;49.058;8.524;2023-02-28T13:54:13;7.80;;;7.10;;
12222;SDS011;6174;49.058;8.524;2023-02-28T13:56:48;7.67;;;6.97;;
12222;SDS011;6174;49.058;8.524;2023-02-28T13:59:25;7.23;;;6.53;;
12222;SDS011;6174;49.058;8.524;2023-02-28T14:02:03;7.70;;;7.00;;
12222;SDS011;6174;49.058;8.524;2023-02-28T14:04:58;9.40;;;7.70;;
12222;SDS011;6174;49.058;8.524;2023-02-28T14:07:28;7.73;;;6.80;;
12222;SDS011;6174;49.058;8.524;2023-02-28T14:09:59;7.73;;;7.03;;
12222;SDS011;6174;49.058;8.524;2023-02-28T14:15:28;7.60;;;6.90;;
12222;SDS011;6174;49.058;8.524;2023-02-28T14:18:24;7.73;;;7.03;;
12222;SDS011;6174;49.058;8.524;2023-02-28T14:23:50;7.43;;;6.83;;
12222;SDS011;6174;49.058;8.524;2023-02-28T14:26:53;7.53;;;6.93;;
12222;SDS011;6174;49.058;8.524;2023-02-28T14:29:43;8.47;;;7.77;;
12222;SDS011;6174;49.058;8.524;2023-02-28T14:32:32;8.53;;;7.73;;
12222;SDS011;6174;49.058;8.524;2023-02-28T14:35:05;8.20;;;7.43;;
12222;SDS011;6174;49.058;8.524;2023-02-28T14:37:44;8.10;;;7.40;;
12222;SDS011;6174;49.058;8.524;2023-02-28T14:40:12;7.80;;;7.10;;
12222;SDS011;6174;49.058;8.524;2023-02-28T14:42:46;9.20;;;8.13;;
12222;SDS011;6174;49.058;8.524;2023-02-28T14:45:17;8.73;;;7.93;;
12222;SDS011;6174;49.058;8.524;2023-02-28T14:47:45;7.47;;;6.87;;
12222;SDS011;6174;49.058;8.524;2023-02-28T14:50:18;8.27;;;7.57;;
12222;SDS011;6174;49.058;8.524;2023-02-28T14:52:45;8.07;;;7.37;;
12222;SDS011;6174;49.058;8.524;2023-02-28T14:55:14;8.00;;;7.33;;
12222;SDS011;6174;49.058;8.524;2023-02-28T14:57:50;7.47;;;6.87;;
12222;SDS011;6174;49.058;8.524;2023-02-28T15:00:20;8.30;;;7.60;;
12222;SDS011;6174;49.058;8.524;2023-02-28T15:02:48;8.00;;;7.30;;
12222;SDS011;6174;49.058;8.524;2023-02-28T15:05:21;8.37;;;7.67;;
12222;SDS011;6174;49.058;8.524;2023-02-28T15:08:01;8.67;;;7.07;;
12222;SDS011;6174;49.058;8.524;2023-02-28T15:10:33;9.80;;;8.67;;
12222;SDS011;6174;49.058;8.524;2023-02-28T15:13:01;8.33;;;7.53;;
12222;SDS011;6174;49.058;8.524;2023-02-28T15:15:33;8.43;;;7.63;;
12222;SDS011;6174;49.058;8.524;2023-02-28T15:18:07;8.13;;;7.33;;
12222;SDS011;6174;49.058;8.524;2023-02-28T15:20:42;7.43;;;6.73;;
12222;SDS011;6174;49.058;8.524;2023-02-28T15:23:10;8.20;;;7.50;;
12222;SDS011;6174;49.058;8.524;2023-02-28T15:25:37;7.93;;;7.23;;
12222;SDS011;6174;49.058;8.524;2023-02-28T15:28:09;9.47;;;8.00;;
12222;SDS011;6174;49.058;8.524;2023-02-28T15:30:49;8.60;;;7.90;;
12222;SDS011;6174;49.058;8.524;2023-02-28T15:33:19;8.10;;;7.40;;
12222;SDS011;6174;49.058;8.524;2023-02-28T15:35:49;7.43;;;6.83;;
12222;SDS011;6174;49.058;8.524;2023-02-28T15:38:17;8.40;;;7.70;;
12222;SDS011;6174;49.058;8.524;2023-02-28T15:40:50;8.00;;;7.30;;
12222;SDS011;6174;49.058;8.524;2023-02-28T15:43:22;8.13;;;7.43;;
12222;SDS011;6174;49.058;8.524;2023-02-28T15:45:52;8.23;;;7.43;;
12222;SDS011;6174;49.058;8.524;2023-02-28T15:48:24;8.23;;;7.53;;
12222;SDS011;6174;49.058;8.524;2023-02-28T15:50:54;8.00;;;7.40;;
12222;SDS011;6174;49.058;8.524;2023-02-28T15:53:25;7.93;;;6.60;;
12222;SDS011;6174;49.058;8.524;2023-02-28T15:55:55;7.60;;;6.90;;
12222;SDS011;6174;49.058;8.524;2023-02-28T15:58:26;8.17;;;7.43;;
12222;SDS011;6174;49.058;8.524;2023-02-28T16:01:00;8.20;;;7.40;;
12222;SDS011;6174;49.058;8.524;2023-02-28T16:03:35;7.50;;;6.80;;
12222;SDS011;6174;49.058;8.524;2023-02-28T16:06:12;8.80;;;7.83;;
12222;SDS011;6174;49.058;8.524;2023-02-28T16:09:05;8.00;;;7.30;;
12222;SDS011;6174;49.058;8.524;2023-02-28T16:11:35;8.97;;;8.07;;
12222;SDS011;6174;49.058;8.524;2023-02-28T16:14:06;8.93;;;8.03;;
12222;SDS011;6174;49.058;8.524;2023-02-28T16:16:41;9.33;;;8.50;;
12222;SDS011;6174;49.058;8.524;2023-02-28T16:19:09;8.50;;;7.70;;
12222;SDS011;6174;49.058;8.524;2023-02-28T16:21:38;8.50;;;7.77;;
12222;SDS011;6174;49.058;8.524;2023-02-28T16:24:05;7.77;;;6.97;;
12222;SDS011;6174;49.058;8.524;2023-02-28T16:26:32;7.73;;;7.03;;
12222;SDS011;6174;49.058;8.524;2023-02-28T16:29:00;8.30;;;7.50;;
12222;SDS011;6174;49.058;8.524;2023-02-28T16:31:27;12.60;;;10.93;;
12222;SDS011;6174;49.058;8.524;2023-02-28T16:33:54;8.27;;;7.47;;
12222;SDS011;6174;49.058;8.524;2023-02-28T16:36:22;8.03;;;7.27;;
12222;SDS011;6174;49.058;8.524;2023-02-28T16:38:52;8.23;;;7.50;;
12222;SDS011;6174;49.058;8.524;2023-02-28T16:41:20;8.40;;;7.70;;
12222;SDS011;6174;49.058;8.524;2023-02-28T16:43:49;8.23;;;7.50;;
12222;SDS011;6174;49.058;8.524;2023-02-28T16:46:17;7.83;;;7.13;;
12222;SDS011;6174;49.058;8.524;2023-02-28T16:48:46;8.27;;;7.47;;
12222;SDS011;6174;49.058;8.524;2023-02-28T16:51:16;8.10;;;7.40;;
12222;SDS011;6174;49.058;8.524;2023-02-28T16:53:43;8.37;;;7.57;;
12222;SDS011;6174;49.058;8.524;2023-02-28T16:56:15;13.13;;;11.20;;
12222;SDS011;6174;49.058;8.524;2023-02-28T16:58:44;9.37;;;8.57;;
12222;SDS011;6174;49.058;8.524;2023-02-28T17:01:11;9.53;;;8.67;;
12222;SDS011;6174;49.058;8.524;2023-02-28T17:03:38;9.80;;;8.90;;
12222;SDS011;6174;49.058;8.524;2023-02-28T17:06:06;9.77;;;8.87;;
12222;SDS011;6174;49.058;8.524;2023-02-28T17:08:41;11.27;;;8.53;;
12222;SDS011;6174;49.058;8.524;2023-02-28T17:11:08;8.20;;;7.40;;
12222;SDS011;6174;49.058;8.524;2023-02-28T17:18:40;8.80;;;8.00;;
12222;SDS011;6174;49.058;8.524;2023-02-28T17:21:09;8.03;;;7.23;;
12222;SDS011;6174;49.058;8.524;2023-02-28T17:23:40;8.30;;;7.60;;
12222;SDS011;6174;49.058;8.524;2023-02-28T17:26:08;8.30;;;7.60;;
12222;SDS011;6174;49.058;8.524;2023-02-28T17:28:38;8.27;;;7.30;;
12222;SDS011;6174;49.058;8.524;2023-02-28T17:31:05;8.90;;;8.10;;
12222;SDS011;6174;49.058;8.524;2023-02-28T17:33:33;8.40;;;7.60;;
12222;SDS011;6174;49.058;8.524;2023-02-28T17:36:01;8.77;;;7.87;;
12222;SDS011;6174;49.058;8.524;2023-02-28T17:38:28;10.00;;;7.63;;
12222;SDS011;6174;49.058;8.524;2023-02-28T17:40:55;9.57;;;8.67;;
12222;SDS011;6174;49.058;8.524;2023-02-28T17:43:22;8.73;;;7.83;;
12222;SDS011;6174;49.058;8.524;2023-02-28T17:45:50;9.10;;;8.30;;
12222;SDS011;6174;49.058;8.524;2023-02-28T17:48:17;8.43;;;7.63;;
12222;SDS011;6174;49.058;8.524;2023-02-28T17:50:43;9.40;;;8.40;;
12222;SDS011;6174;49.058;8.524;2023-02-28T17:53:12;10.43;;;9.43;;
12222;SDS011;6174;49.058;8.524;2023-02-28T17:55:38;10.13;;;9.13;;
12222;SDS011;6174;49.058;8.524;2023-02-28T17:58:05;11.60;;;10.40;;
12222;SDS011;6174;49.058;8.524;2023-02-28T18:00:32;9.40;;;8.50;;
12222;SDS011;6174;49.058;8.524;2023-02-28T18:02:59;10.03;;;9.03;;
12222;SDS011;6174;49.058;8.524;2023-02-28T18:05:26;12.07;;;8.73;;
12222;SDS011;6174;49.058;8.524;2023-02-28T18:07:52;9.27;;;8.30;;
12222;SDS011;6174;49.058;8.524;2023-02-28T18:10:21;9.27;;;8.47;;
12222;SDS011;6174;49.058;8.524;2023-02-28T18:12:48;8.13;;;7.33;;
12222;SDS011;6174;49.058;8.524;2023-02-28T18:15:16;9.70;;;8.70;;
12222;SDS011;6174;49.058;8.524;2023-02-28T18:17:45;9.13;;;8.23;;
12222;SDS011;6174;49.058;8.524;2023-02-28T18:20:12;8.77;;;7.87;;
12222;SDS011;6174;49.058;8.524;2023-02-28T18:22:39;10.07;;;8.13;;
12222;SDS011;6174;49.058;8.524;2023-02-28T18:25:07;9.40;;;8.50;;
12222;SDS011;6174;49.058;8.524;2023-02-28T18:27:40;8.50;;;7.70;;
12222;SDS011;6174;49.058;8.524;2023-02-28T18:30:18;12.40;;;10.13;;
12222;SDS011;6174;49.058;8.524;2023-02-28T18:32:45;10.23;;;9.20;;
12222;SDS011;6174;49.058;8.524;2023-02-28T18:35:12;11.13;;;9.50;;
12222;SDS011;6174;49.058;8.524;2023-02-28T18:37:38;9.50;;;8.53;;
12222;SDS011;6174;49.058;8.524;2023-02-28T18:40:06;9.63;;;8.73;;
12222;SDS011;6174;49.058;8.524;2023-02-28T18:42:33;10.00;;;8.90;;
12222;SDS011;6174;49.058;8.524;2023-02-28T18:45:01;10.27;;;9.17;;
12222;SDS011;6174;49.058;8.524;2023-02-28T18:47:28;9.30;;;8.40;;
12222;SDS011;6174;49.058;8.524;2023-02-28T18:49:56;9.67;;;8.67;;
12222;SDS011;6174;49.058;8.524;2023-02-28T18:52:22;11.70;;;10.43;;
12222;SDS011;6174;49.058;8.524;2023-02-28T18:54:49;10.67;;;9.57;;
12222;SDS011;6174;49.058;8.524;2023-02-28T18:57:16;9.17;;;8.27;;
12222;SDS011;6174;49.058;8.524;2023-02-28T18:59:42;29.07;;;19.23;;
12222;SDS011;6174;49.058;8.524;2023-02-28T19:02:11;10.40;;;9.30;;
12222;SDS011;6174;49.058;8.524;2023-02-28T19:04:39;10.13;;;9.13;;
12222;SDS011;6174;49.058;8.524;2023-02-28T19:07:06;12.00;;;10.90;;
12222;SDS011;6174;49.058;8.524;2023-02-28T19:09:33;9.97;;;8.97;;
12222;SDS011;6174;49.058;8.524;2023-02-28T19:12:00;10.20;;;9.30;;
12222;SDS011;6174;49.058;8.524;2023-02-28T19:14:27;9.97;;;8.97;;
12222;SDS011;6174;49.058;8.524;2023-02-28T19:16:53;9.50;;;8.60;;
12222;SDS011;6174;49.058;8.524;2023-02-28T19:19:21;9.40;;;8.50;;
12222;SDS011;6174;49.058;8.524;2023-02-28T19:21:48;11.23;;;9.03;;
12222;SDS011;6174;49.058;8.524;2023-02-28T19:24:15;9.93;;;8.93;;
12222;SDS011;6174;49.058;8.524;2023-02-28T19:26:42;9.73;;;8.83;;
12222;SDS011;6174;49.058;8.524;2023-02-28T19:29:08;9.50;;;8.60;;
12222;SDS011;6174;49.058;8.524;2023-02-28T19:31:35;9.87;;;8.90;;
12222;SDS011;6174;49.058;8.524;2023-02-28T19:34:02;10.10;;;9.10;;
12222;SDS011;6174;49.058;8.524;2023-02-28T19:36:30;9.97;;;8.97;;
12222;SDS011;6174;49.058;8.524;2023-02-28T19:38:57;9.90;;;8.90;;
12222;SDS011;6174;49.058;8.524;2023-02-28T19:41:24;10.13;;;9.13;;
12222;SDS011;6174;49.058;8.524;2023-02-28T19:43:51;10.83;;;9.53;;
12222;SDS011;6174;49.058;8.524;2023-02-28T19:46:18;10.00;;;9.00;;
12222;SDS011;6174;49.058;8.524;2023-02-28T19:48:45;9.53;;;8.63;;
12222;SDS011;6174;49.058;8.524;2023-02-28T19:51:13;10.10;;;9.10;;
12222;SDS011;6174;49.058;8.524;2023-02-28T19:53:41;10.87;;;8.60;;
12222;SDS011;6174;49.058;8.524;2023-02-28T19:56:09;9.63;;;8.73;;
12222;SDS011;6174;49.058;8.524;2023-02-28T19:58:36;10.50;;;9.37;;
12222;SDS011;6174;49.058;8.524;2023-02-28T20:01:07;10.63;;;9.67;;
12222;SDS011;6174;49.058;8.524;2023-02-28T20:03:34;9.67;;;8.70;;
12222;SDS011;6174;49.058;8.524;2023-02-28T20:06:03;9.90;;;8.90;;
12222;SDS011;6174;49.058;8.524;2023-02-28T20:08:32;10.73;;;9.57;;
12222;SDS011;6174;49.058;8.524;2023-02-28T20:11:03;9.50;;;8.60;;
12222;SDS011;6174;49.058;8.524;2023-02-28T20:13:31;10.23;;;9.20;;
12222;SDS011;6174;49.058;8.524;2023-02-28T20:15:59;9.57;;;8.67;;
12222;SDS011;6174;49.058;8.524;2023-02-28T20:18:26;9.53;;;8.63;;
12222;SDS011;6174;49.058;8.524;2023-02-28T20:20:53;10.57;;;9.57;;
12222;SDS011;6174;49.058;8.524;2023-02-28T20:23:20;10.83;;;9.43;;
12222;SDS011;6174;49.058;8.524;2023-02-28T20:25:46;10.80;;;9.03;;
12222;SDS011;6174;49.058;8.524;2023-02-28T20:28:16;10.77;;;9.73;;
12222;SDS011;6174;49.058;8.524;2023-02-28T20:30:43;10.80;;;9.70;;
12222;SDS011;6174;49.058;8.524;2023-02-28T20:33:12;10.90;;;9.63;;
12222;SDS011;6174;49.058;8.524;2023-02-28T20:35:39;10.37;;;9.33;;
12222;SDS011;6174;49.058;8.524;2023-02-28T20:38:06;10.87;;;9.77;;
12222;SDS011;6174;49.058;8.524;2023-02-28T20:40:33;10.13;;;9.13;;
12222;SDS011;6174;49.058;8.524;2023-02-28T20:42:59;11.10;;;9.80;;
12222;SDS011;6174;49.058;8.524;2023-02-28T20:45:27;10.87;;;9.73;;
12222;SDS011;6174;49.058;8.524;2023-02-28T20:47:54;10.60;;;9.60;;